Airfield :
LOGIN :

Register | Disclaimer

   EN    FR    IT 

 










Legend :    VFR   Marginal VFR   IFR   Intensive IFR   Very Intensive IFR
Visi :
Ceiling :
>= 8 km
>= 3000ft
5 to 8 km
1000 to 3000 ft
1500m to 5 km
500 to 1000 ft
800 to 1500m
200 to 500 ft
< 800m
< 200 ft
Symbols :   Thunderstorms  Fog  Heavy snow  Heavy precipitations  Wind > 20 kt
SIGMETs :     Misc.  Thunderstorms  Icing  Turbulence  Mountain Waves  Volcanic Ashes






- Airport Elevation : 177 ft
- IATA code : BRI


LIBD - Palese Macchie Bari

CURRENT METAR :
  • 011120Z 31015KT 280V340 9999 SCT030 09/00 Q1013

EXPIRED METARs :
  • 011050Z 32014KT 280V350 9999 SCT030 08/02 Q1013
  • 011020Z 32012KT 290V350 9999 SCT030 08/00 Q1013 R25/010095
  • 010950Z 32013KT 280V350 9999 FEW020 SCT040 07/00 Q1013 RERA R25/010095
  • 010920Z 33012KT 280V010 9999 RA FEW020 SCT040 05/03 Q1013 R07/010095
  • 010850Z 28009KT 250V310 9999 FEW020 SCT045 06/03 Q1013 07/010095
  • 010820Z 32009KT 280V350 9999 FEW020 SCT045 06/02 Q1013

TAF TAF LIBD
Valid from the 01 at 06:00 until the 02 at 06:00 UTC


010500Z 0106/0206 30012KT 9999 SCT030
TEMPO 0106/0110 SHRA
BECMG 0116/0118 29006KT



MET'MAP, your aeronautical weather chart ! - Copyright ORBIFLY December 2007 - Disclaimer

ORBIFLY MET'MAP TEAM :

Programming & Development : Alexandra Zaïnal
Concept & original design : Baudouin d'Aumeries
Assistance for programming : Marc-Olivier Méhu
Technical & hardware support : Manuel Goepfert

Contact : metmap@orbifly.com




SOURCES & CREDITS :

   NOAA